< < Back
Terminal Aerodrome Forecast


Current Version              Previous Versions:   1  2  3  4  5  6  7  8  9  

Terminal Aerodrome Forecast

812
FTUS44 KOHX 192000 AAA
TAFBNA
TAF AMD
KBNA 192005Z 1920/2018 04012G19KT P6SM SCT250
     FM200100 04004KT P6SM SKC=



Latest METAR

709
SAUS70 KWBC 201000 RRE
MTRBNA
METAR KBNA 200953Z 18003KT 10SM FEW150 08/06 A3019 RMK AO2 SLP218
T00830061


USA.gov is the U.S. government's official web portal to all federal, state and local government web resources and services.